sensor_id;sensor_type;location;lat;lon;timestamp;P1;durP1;ratioP1;P2;durP2;ratioP2
17151;SDS011;8691;50.828;4.700;2022-10-28T00:00:48;9.95;;;4.10;;
17151;SDS011;8691;50.828;4.700;2022-10-28T00:03:17;10.25;;;4.07;;
17151;SDS011;8691;50.828;4.700;2022-10-28T00:05:43;7.57;;;4.10;;
17151;SDS011;8691;50.828;4.700;2022-10-28T00:08:09;7.20;;;4.07;;
17151;SDS011;8691;50.828;4.700;2022-10-28T00:10:36;8.55;;;4.20;;
17151;SDS011;8691;50.828;4.700;2022-10-28T00:13:03;8.23;;;3.93;;
17151;SDS011;8691;50.828;4.700;2022-10-28T00:15:31;9.35;;;4.05;;
17151;SDS011;8691;50.828;4.700;2022-10-28T00:17:56;6.33;;;3.83;;
17151;SDS011;8691;50.828;4.700;2022-10-28T00:20:23;9.65;;;4.50;;
17151;SDS011;8691;50.828;4.700;2022-10-28T00:22:50;10.32;;;4.07;;
17151;SDS011;8691;50.828;4.700;2022-10-28T00:25:18;8.18;;;4.05;;
17151;SDS011;8691;50.828;4.700;2022-10-28T00:27:45;8.27;;;4.07;;
17151;SDS011;8691;50.828;4.700;2022-10-28T00:30:11;13.50;;;4.30;;
17151;SDS011;8691;50.828;4.700;2022-10-28T00:32:38;7.62;;;3.83;;
17151;SDS011;8691;50.828;4.700;2022-10-28T00:35:05;8.88;;;4.10;;
17151;SDS011;8691;50.828;4.700;2022-10-28T00:37:32;6.67;;;3.30;;
17151;SDS011;8691;50.828;4.700;2022-10-28T00:39:59;8.88;;;4.00;;
17151;SDS011;8691;50.828;4.700;2022-10-28T00:42:26;9.03;;;3.73;;
17151;SDS011;8691;50.828;4.700;2022-10-28T00:45:00;9.65;;;4.62;;
17151;SDS011;8691;50.828;4.700;2022-10-28T00:50:16;9.33;;;3.27;;
17151;SDS011;8691;50.828;4.700;2022-10-28T00:52:42;8.62;;;4.00;;
17151;SDS011;8691;50.828;4.700;2022-10-28T00:55:08;9.65;;;4.28;;
17151;SDS011;8691;50.828;4.700;2022-10-28T00:57:36;6.13;;;3.53;;
17151;SDS011;8691;50.828;4.700;2022-10-28T01:00:04;14.03;;;3.93;;
17151;SDS011;8691;50.828;4.700;2022-10-28T01:02:31;11.38;;;4.03;;
17151;SDS011;8691;50.828;4.700;2022-10-28T01:04:57;7.37;;;4.10;;
17151;SDS011;8691;50.828;4.700;2022-10-28T01:07:24;10.62;;;3.85;;
17151;SDS011;8691;50.828;4.700;2022-10-28T01:09:51;5.50;;;3.40;;
17151;SDS011;8691;50.828;4.700;2022-10-28T01:17:47;9.40;;;3.62;;
17151;SDS011;8691;50.828;4.700;2022-10-28T01:23:38;11.33;;;4.17;;
17151;SDS011;8691;50.828;4.700;2022-10-28T01:26:27;8.20;;;3.93;;
17151;SDS011;8691;50.828;4.700;2022-10-28T01:31:51;6.97;;;3.50;;
17151;SDS011;8691;50.828;4.700;2022-10-28T01:34:36;14.33;;;4.10;;
17151;SDS011;8691;50.828;4.700;2022-10-28T01:37:05;11.53;;;3.93;;
17151;SDS011;8691;50.828;4.700;2022-10-28T01:39:46;12.83;;;3.77;;
17151;SDS011;8691;50.828;4.700;2022-10-28T01:47:49;9.70;;;3.80;;
17151;SDS011;8691;50.828;4.700;2022-10-28T01:53:08;9.00;;;3.65;;
17151;SDS011;8691;50.828;4.700;2022-10-28T01:55:34;9.07;;;3.43;;
17151;SDS011;8691;50.828;4.700;2022-10-28T01:58:00;11.75;;;4.28;;
17151;SDS011;8691;50.828;4.700;2022-10-28T02:00:27;6.07;;;3.50;;
17151;SDS011;8691;50.828;4.700;2022-10-28T02:02:54;11.18;;;3.90;;
17151;SDS011;8691;50.828;4.700;2022-10-28T02:10:39;10.38;;;4.00;;
17151;SDS011;8691;50.828;4.700;2022-10-28T02:13:06;12.30;;;3.83;;
17151;SDS011;8691;50.828;4.700;2022-10-28T02:15:36;8.18;;;3.72;;
17151;SDS011;8691;50.828;4.700;2022-10-28T02:18:12;10.30;;;4.10;;
17151;SDS011;8691;50.828;4.700;2022-10-28T02:21:03;10.55;;;4.22;;
17151;SDS011;8691;50.828;4.700;2022-10-28T02:26:11;11.33;;;3.70;;
17151;SDS011;8691;50.828;4.700;2022-10-28T02:28:45;11.93;;;4.10;;
17151;SDS011;8691;50.828;4.700;2022-10-28T02:31:14;9.23;;;3.93;;
17151;SDS011;8691;50.828;4.700;2022-10-28T02:33:52;8.90;;;4.10;;
17151;SDS011;8691;50.828;4.700;2022-10-28T02:36:17;8.27;;;3.87;;
17151;SDS011;8691;50.828;4.700;2022-10-28T02:38:48;9.25;;;4.20;;
17151;SDS011;8691;50.828;4.700;2022-10-28T02:41:24;9.40;;;3.90;;
17151;SDS011;8691;50.828;4.700;2022-10-28T02:43:41;8.23;;;4.10;;
17151;SDS011;8691;50.828;4.700;2022-10-28T02:46:09;11.97;;;4.13;;
17151;SDS011;8691;50.828;4.700;2022-10-28T02:48:37;12.30;;;3.90;;
17151;SDS011;8691;50.828;4.700;2022-10-28T02:51:13;10.05;;;4.30;;
17151;SDS011;8691;50.828;4.700;2022-10-28T02:53:40;8.07;;;3.87;;
17151;SDS011;8691;50.828;4.700;2022-10-28T02:55:58;7.77;;;3.73;;
17151;SDS011;8691;50.828;4.700;2022-10-28T02:58:25;11.70;;;4.35;;
17151;SDS011;8691;50.828;4.700;2022-10-28T03:00:52;11.10;;;4.38;;
17151;SDS011;8691;50.828;4.700;2022-10-28T03:03:19;9.20;;;4.20;;
17151;SDS011;8691;50.828;4.700;2022-10-28T03:05:45;10.20;;;3.97;;
17151;SDS011;8691;50.828;4.700;2022-10-28T03:08:12;10.05;;;4.12;;
17151;SDS011;8691;50.828;4.700;2022-10-28T03:10:39;9.23;;;4.43;;
17151;SDS011;8691;50.828;4.700;2022-10-28T03:13:06;10.32;;;4.15;;
17151;SDS011;8691;50.828;4.700;2022-10-28T03:15:33;11.47;;;4.20;;
17151;SDS011;8691;50.828;4.700;2022-10-28T03:18:00;9.37;;;4.20;;
17151;SDS011;8691;50.828;4.700;2022-10-28T03:20:27;9.77;;;4.50;;
17151;SDS011;8691;50.828;4.700;2022-10-28T03:22:53;9.93;;;3.80;;
17151;SDS011;8691;50.828;4.700;2022-10-28T03:25:20;9.30;;;4.10;;
17151;SDS011;8691;50.828;4.700;2022-10-28T03:27:47;8.50;;;4.20;;
17151;SDS011;8691;50.828;4.700;2022-10-28T03:30:14;9.12;;;4.07;;
17151;SDS011;8691;50.828;4.700;2022-10-28T03:32:40;11.82;;;4.28;;
17151;SDS011;8691;50.828;4.700;2022-10-28T03:35:07;8.77;;;3.57;;
17151;SDS011;8691;50.828;4.700;2022-10-28T03:37:34;10.57;;;4.32;;
17151;SDS011;8691;50.828;4.700;2022-10-28T03:40:01;10.27;;;3.60;;
17151;SDS011;8691;50.828;4.700;2022-10-28T03:42:28;10.52;;;4.38;;
17151;SDS011;8691;50.828;4.700;2022-10-28T03:44:54;9.52;;;4.12;;
17151;SDS011;8691;50.828;4.700;2022-10-28T03:47:21;10.12;;;4.43;;
17151;SDS011;8691;50.828;4.700;2022-10-28T03:49:48;9.53;;;3.93;;
17151;SDS011;8691;50.828;4.700;2022-10-28T03:52:15;9.88;;;4.85;;
17151;SDS011;8691;50.828;4.700;2022-10-28T03:54:41;8.50;;;3.87;;
17151;SDS011;8691;50.828;4.700;2022-10-28T03:57:08;9.90;;;4.35;;
17151;SDS011;8691;50.828;4.700;2022-10-28T03:59:35;12.23;;;4.00;;
17151;SDS011;8691;50.828;4.700;2022-10-28T04:02:02;9.62;;;4.45;;
17151;SDS011;8691;50.828;4.700;2022-10-28T04:04:28;12.47;;;4.17;;
17151;SDS011;8691;50.828;4.700;2022-10-28T04:06:55;8.18;;;4.00;;
17151;SDS011;8691;50.828;4.700;2022-10-28T04:09:22;10.13;;;4.37;;
17151;SDS011;8691;50.828;4.700;2022-10-28T04:11:49;8.85;;;3.97;;
17151;SDS011;8691;50.828;4.700;2022-10-28T04:14:16;9.87;;;3.80;;
17151;SDS011;8691;50.828;4.700;2022-10-28T04:16:43;13.10;;;4.20;;
17151;SDS011;8691;50.828;4.700;2022-10-28T04:19:10;10.33;;;4.70;;
17151;SDS011;8691;50.828;4.700;2022-10-28T04:21:37;10.57;;;4.33;;
17151;SDS011;8691;50.828;4.700;2022-10-28T04:24:04;8.95;;;4.60;;
17151;SDS011;8691;50.828;4.700;2022-10-28T04:26:31;8.10;;;4.27;;
17151;SDS011;8691;50.828;4.700;2022-10-28T04:28:59;10.60;;;4.20;;
17151;SDS011;8691;50.828;4.700;2022-10-28T04:31:26;9.67;;;4.60;;
17151;SDS011;8691;50.828;4.700;2022-10-28T04:33:53;11.82;;;4.60;;
17151;SDS011;8691;50.828;4.700;2022-10-28T04:36:20;8.65;;;4.40;;
17151;SDS011;8691;50.828;4.700;2022-10-28T04:38:46;9.50;;;4.27;;
17151;SDS011;8691;50.828;4.700;2022-10-28T04:41:13;10.25;;;4.50;;
17151;SDS011;8691;50.828;4.700;2022-10-28T04:43:40;10.70;;;3.83;;
17151;SDS011;8691;50.828;4.700;2022-10-28T04:46:07;11.25;;;4.18;;
17151;SDS011;8691;50.828;4.700;2022-10-28T04:48:33;8.70;;;3.60;;
17151;SDS011;8691;50.828;4.700;2022-10-28T04:51:01;11.20;;;4.73;;
17151;SDS011;8691;50.828;4.700;2022-10-28T04:53:28;10.80;;;4.95;;
17151;SDS011;8691;50.828;4.700;2022-10-28T04:55:57;10.77;;;4.00;;
17151;SDS011;8691;50.828;4.700;2022-10-28T04:58:24;11.07;;;5.00;;
17151;SDS011;8691;50.828;4.700;2022-10-28T05:00:51;11.77;;;4.45;;
17151;SDS011;8691;50.828;4.700;2022-10-28T05:03:18;11.03;;;4.90;;
17151;SDS011;8691;50.828;4.700;2022-10-28T05:05:44;11.97;;;4.50;;
17151;SDS011;8691;50.828;4.700;2022-10-28T05:08:11;11.05;;;4.38;;
17151;SDS011;8691;50.828;4.700;2022-10-28T05:10:38;10.60;;;4.10;;
17151;SDS011;8691;50.828;4.700;2022-10-28T05:13:04;12.70;;;4.78;;
17151;SDS011;8691;50.828;4.700;2022-10-28T05:15:31;8.77;;;4.30;;
17151;SDS011;8691;50.828;4.700;2022-10-28T05:17:58;9.60;;;4.40;;
17151;SDS011;8691;50.828;4.700;2022-10-28T05:20:26;11.43;;;4.62;;
17151;SDS011;8691;50.828;4.700;2022-10-28T05:22:53;9.47;;;4.40;;
17151;SDS011;8691;50.828;4.700;2022-10-28T05:25:20;12.27;;;4.95;;
17151;SDS011;8691;50.828;4.700;2022-10-28T05:27:46;9.53;;;4.40;;
17151;SDS011;8691;50.828;4.700;2022-10-28T05:30:13;12.18;;;4.78;;
17151;SDS011;8691;50.828;4.700;2022-10-28T05:32:40;11.73;;;4.50;;
17151;SDS011;8691;50.828;4.700;2022-10-28T05:35:07;9.57;;;4.33;;
17151;SDS011;8691;50.828;4.700;2022-10-28T05:37:34;10.57;;;4.40;;
17151;SDS011;8691;50.828;4.700;2022-10-28T05:40:00;13.27;;;4.27;;
17151;SDS011;8691;50.828;4.700;2022-10-28T05:42:27;11.07;;;5.05;;
17151;SDS011;8691;50.828;4.700;2022-10-28T05:44:54;11.23;;;4.37;;
17151;SDS011;8691;50.828;4.700;2022-10-28T05:47:21;9.50;;;4.80;;
17151;SDS011;8691;50.828;4.700;2022-10-28T05:49:47;8.33;;;4.13;;
17151;SDS011;8691;50.828;4.700;2022-10-28T05:52:14;10.50;;;4.60;;
17151;SDS011;8691;50.828;4.700;2022-10-28T05:54:41;10.43;;;4.10;;
17151;SDS011;8691;50.828;4.700;2022-10-28T05:57:09;10.30;;;4.87;;
17151;SDS011;8691;50.828;4.700;2022-10-28T05:59:35;12.27;;;4.20;;
17151;SDS011;8691;50.828;4.700;2022-10-28T06:02:02;13.80;;;4.37;;
17151;SDS011;8691;50.828;4.700;2022-10-28T06:04:29;11.00;;;5.07;;
17151;SDS011;8691;50.828;4.700;2022-10-28T06:06:56;10.98;;;5.10;;
17151;SDS011;8691;50.828;4.700;2022-10-28T06:09:23;11.40;;;4.90;;
17151;SDS011;8691;50.828;4.700;2022-10-28T06:11:49;8.83;;;4.60;;
17151;SDS011;8691;50.828;4.700;2022-10-28T06:14:16;11.48;;;5.32;;
17151;SDS011;8691;50.828;4.700;2022-10-28T06:16:43;8.97;;;4.10;;
17151;SDS011;8691;50.828;4.700;2022-10-28T06:19:10;12.27;;;5.10;;
17151;SDS011;8691;50.828;4.700;2022-10-28T06:21:36;9.23;;;4.23;;
17151;SDS011;8691;50.828;4.700;2022-10-28T06:24:03;10.02;;;4.90;;
17151;SDS011;8691;50.828;4.700;2022-10-28T06:26:30;11.23;;;4.90;;
17151;SDS011;8691;50.828;4.700;2022-10-28T06:28:58;9.17;;;4.50;;
17151;SDS011;8691;50.828;4.700;2022-10-28T06:31:25;9.40;;;5.15;;
17151;SDS011;8691;50.828;4.700;2022-10-28T06:33:52;9.27;;;3.93;;
17151;SDS011;8691;50.828;4.700;2022-10-28T06:36:19;9.43;;;5.00;;
17151;SDS011;8691;50.828;4.700;2022-10-28T06:38:45;11.80;;;4.17;;
17151;SDS011;8691;50.828;4.700;2022-10-28T06:41:12;14.43;;;5.47;;
17151;SDS011;8691;50.828;4.700;2022-10-28T06:43:39;10.00;;;4.60;;
17151;SDS011;8691;50.828;4.700;2022-10-28T06:46:06;12.23;;;5.00;;
17151;SDS011;8691;50.828;4.700;2022-10-28T06:48:33;9.07;;;4.78;;
17151;SDS011;8691;50.828;4.700;2022-10-28T06:51:00;9.90;;;5.00;;
17151;SDS011;8691;50.828;4.700;2022-10-28T06:53:27;11.73;;;4.80;;
17151;SDS011;8691;50.828;4.700;2022-10-28T06:55:53;12.47;;;5.80;;
17151;SDS011;8691;50.828;4.700;2022-10-28T06:58:20;9.98;;;5.20;;
17151;SDS011;8691;50.828;4.700;2022-10-28T07:00:47;14.15;;;5.65;;
17151;SDS011;8691;50.828;4.700;2022-10-28T07:03:14;9.52;;;5.38;;
17151;SDS011;8691;50.828;4.700;2022-10-28T07:05:41;10.20;;;5.55;;
17151;SDS011;8691;50.828;4.700;2022-10-28T07:08:07;12.57;;;5.77;;
17151;SDS011;8691;50.828;4.700;2022-10-28T07:10:34;12.53;;;4.33;;
17151;SDS011;8691;50.828;4.700;2022-10-28T07:13:01;11.45;;;5.95;;
17151;SDS011;8691;50.828;4.700;2022-10-28T07:15:28;9.27;;;5.07;;
17151;SDS011;8691;50.828;4.700;2022-10-28T07:17:55;12.00;;;5.90;;
17151;SDS011;8691;50.828;4.700;2022-10-28T07:20:22;9.75;;;5.07;;
17151;SDS011;8691;50.828;4.700;2022-10-28T07:22:58;10.87;;;5.97;;
17151;SDS011;8691;50.828;4.700;2022-10-28T07:25:25;12.47;;;5.97;;
17151;SDS011;8691;50.828;4.700;2022-10-28T07:27:51;11.33;;;5.40;;
17151;SDS011;8691;50.828;4.700;2022-10-28T07:30:18;10.20;;;4.97;;
17151;SDS011;8691;50.828;4.700;2022-10-28T07:32:45;12.67;;;5.47;;
17151;SDS011;8691;50.828;4.700;2022-10-28T07:35:11;12.20;;;4.83;;
17151;SDS011;8691;50.828;4.700;2022-10-28T07:37:38;10.25;;;4.60;;
17151;SDS011;8691;50.828;4.700;2022-10-28T07:40:06;11.00;;;4.70;;
17151;SDS011;8691;50.828;4.700;2022-10-28T07:42:32;12.35;;;4.80;;
17151;SDS011;8691;50.828;4.700;2022-10-28T07:44:59;12.53;;;3.97;;
17151;SDS011;8691;50.828;4.700;2022-10-28T07:47:27;10.65;;;4.55;;
17151;SDS011;8691;50.828;4.700;2022-10-28T07:49:54;10.98;;;4.62;;
17151;SDS011;8691;50.828;4.700;2022-10-28T07:52:20;9.97;;;4.30;;
17151;SDS011;8691;50.828;4.700;2022-10-28T07:54:48;12.50;;;4.30;;
17151;SDS011;8691;50.828;4.700;2022-10-28T07:57:14;14.73;;;4.60;;
17151;SDS011;8691;50.828;4.700;2022-10-28T07:59:42;11.10;;;5.33;;
17151;SDS011;8691;50.828;4.700;2022-10-28T08:02:10;9.00;;;4.65;;
17151;SDS011;8691;50.828;4.700;2022-10-28T08:04:35;11.27;;;4.17;;
17151;SDS011;8691;50.828;4.700;2022-10-28T08:07:02;10.03;;;3.87;;
17151;SDS011;8691;50.828;4.700;2022-10-28T08:09:29;10.50;;;4.10;;
17151;SDS011;8691;50.828;4.700;2022-10-28T08:11:56;9.47;;;3.83;;
17151;SDS011;8691;50.828;4.700;2022-10-28T08:14:22;10.07;;;3.80;;
17151;SDS011;8691;50.828;4.700;2022-10-28T08:16:50;9.60;;;3.53;;
17151;SDS011;8691;50.828;4.700;2022-10-28T08:19:16;9.97;;;3.50;;
17151;SDS011;8691;50.828;4.700;2022-10-28T08:21:43;7.67;;;3.90;;
17151;SDS011;8691;50.828;4.700;2022-10-28T08:24:10;11.32;;;4.22;;
17151;SDS011;8691;50.828;4.700;2022-10-28T08:26:37;11.10;;;4.37;;
17151;SDS011;8691;50.828;4.700;2022-10-28T08:29:04;13.10;;;4.77;;
17151;SDS011;8691;50.828;4.700;2022-10-28T08:31:31;11.45;;;4.10;;
17151;SDS011;8691;50.828;4.700;2022-10-28T08:33:57;11.30;;;4.32;;
17151;SDS011;8691;50.828;4.700;2022-10-28T08:36:24;11.10;;;4.30;;
17151;SDS011;8691;50.828;4.700;2022-10-28T08:38:51;8.73;;;4.23;;
17151;SDS011;8691;50.828;4.700;2022-10-28T08:49:29;12.50;;;4.67;;
17151;SDS011;8691;50.828;4.700;2022-10-28T08:51:56;10.30;;;4.80;;
17151;SDS011;8691;50.828;4.700;2022-10-28T08:54:45;10.47;;;4.77;;
17151;SDS011;8691;50.828;4.700;2022-10-28T08:56:58;12.87;;;4.87;;
17151;SDS011;8691;50.828;4.700;2022-10-28T08:59:31;11.12;;;4.60;;
17151;SDS011;8691;50.828;4.700;2022-10-28T09:02:09;9.23;;;4.50;;
17151;SDS011;8691;50.828;4.700;2022-10-28T09:04:41;11.27;;;4.03;;
17151;SDS011;8691;50.828;4.700;2022-10-28T09:07:13;10.35;;;4.45;;
17151;SDS011;8691;50.828;4.700;2022-10-28T09:09:42;11.35;;;4.85;;
17151;SDS011;8691;50.828;4.700;2022-10-28T09:12:11;9.27;;;4.60;;
17151;SDS011;8691;50.828;4.700;2022-10-28T09:17:17;10.87;;;4.23;;
17151;SDS011;8691;50.828;4.700;2022-10-28T09:19:50;12.52;;;4.20;;
17151;SDS011;8691;50.828;4.700;2022-10-28T09:25:04;7.50;;;3.57;;
17151;SDS011;8691;50.828;4.700;2022-10-28T09:30:04;10.05;;;3.97;;
17151;SDS011;8691;50.828;4.700;2022-10-28T09:35:07;9.73;;;3.80;;
17151;SDS011;8691;50.828;4.700;2022-10-28T09:37:34;10.82;;;4.03;;
17151;SDS011;8691;50.828;4.700;2022-10-28T09:40:19;10.73;;;3.73;;
17151;SDS011;8691;50.828;4.700;2022-10-28T09:42:58;12.30;;;3.97;;
17151;SDS011;8691;50.828;4.700;2022-10-28T09:45:36;8.07;;;3.50;;
17151;SDS011;8691;50.828;4.700;2022-10-28T09:48:04;10.48;;;4.00;;
17151;SDS011;8691;50.828;4.700;2022-10-28T09:50:35;7.03;;;3.47;;
17151;SDS011;8691;50.828;4.700;2022-10-28T09:53:07;9.95;;;3.92;;
17151;SDS011;8691;50.828;4.700;2022-10-28T09:55:30;13.63;;;3.80;;
17151;SDS011;8691;50.828;4.700;2022-10-28T09:57:57;9.00;;;3.70;;
17151;SDS011;8691;50.828;4.700;2022-10-28T10:00:24;7.80;;;3.53;;
17151;SDS011;8691;50.828;4.700;2022-10-28T10:02:52;9.80;;;3.90;;
17151;SDS011;8691;50.828;4.700;2022-10-28T10:05:18;10.68;;;3.58;;
17151;SDS011;8691;50.828;4.700;2022-10-28T10:07:56;9.23;;;3.25;;
17151;SDS011;8691;50.828;4.700;2022-10-28T10:10:26;10.82;;;3.38;;
17151;SDS011;8691;50.828;4.700;2022-10-28T10:12:58;9.50;;;3.43;;
17151;SDS011;8691;50.828;4.700;2022-10-28T10:15:30;10.12;;;3.65;;
17151;SDS011;8691;50.828;4.700;2022-10-28T10:17:53;13.10;;;3.87;;
17151;SDS011;8691;50.828;4.700;2022-10-28T10:20:20;10.12;;;3.60;;
17151;SDS011;8691;50.828;4.700;2022-10-28T10:22:47;8.25;;;3.55;;
17151;SDS011;8691;50.828;4.700;2022-10-28T10:28:00;10.70;;;3.50;;
17151;SDS011;8691;50.828;4.700;2022-10-28T10:30:33;11.77;;;3.33;;
17151;SDS011;8691;50.828;4.700;2022-10-28T10:33:05;8.73;;;3.22;;
17151;SDS011;8691;50.828;4.700;2022-10-28T10:35:33;10.73;;;3.53;;
17151;SDS011;8691;50.828;4.700;2022-10-28T10:37:59;11.57;;;3.73;;
17151;SDS011;8691;50.828;4.700;2022-10-28T10:40:34;12.93;;;3.93;;
17151;SDS011;8691;50.828;4.700;2022-10-28T10:45:58;10.90;;;3.90;;
17151;SDS011;8691;50.828;4.700;2022-10-28T10:48:24;10.50;;;3.60;;
17151;SDS011;8691;50.828;4.700;2022-10-28T10:50:51;9.55;;;3.30;;
17151;SDS011;8691;50.828;4.700;2022-10-28T10:55:47;9.93;;;3.73;;
17151;SDS011;8691;50.828;4.700;2022-10-28T10:58:16;9.70;;;3.47;;
17151;SDS011;8691;50.828;4.700;2022-10-28T11:00:50;12.85;;;3.67;;
17151;SDS011;8691;50.828;4.700;2022-10-28T11:03:17;11.98;;;3.70;;
17151;SDS011;8691;50.828;4.700;2022-10-28T11:05:54;8.57;;;3.60;;
17151;SDS011;8691;50.828;4.700;2022-10-28T11:11:05;8.67;;;2.80;;
17151;SDS011;8691;50.828;4.700;2022-10-28T11:13:31;9.50;;;3.27;;
17151;SDS011;8691;50.828;4.700;2022-10-28T11:16:02;12.65;;;3.80;;
17151;SDS011;8691;50.828;4.700;2022-10-28T11:18:25;10.40;;;3.50;;
17151;SDS011;8691;50.828;4.700;2022-10-28T11:20:53;10.13;;;3.50;;
17151;SDS011;8691;50.828;4.700;2022-10-28T11:23:28;11.62;;;3.58;;
17151;SDS011;8691;50.828;4.700;2022-10-28T11:25:54;8.97;;;3.73;;
17151;SDS011;8691;50.828;4.700;2022-10-28T11:36:35;14.93;;;3.57;;
17151;SDS011;8691;50.828;4.700;2022-10-28T11:39:18;10.70;;;3.70;;
17151;SDS011;8691;50.828;4.700;2022-10-28T11:41:48;10.40;;;4.13;;
17151;SDS011;8691;50.828;4.700;2022-10-28T11:44:22;9.67;;;3.50;;
17151;SDS011;8691;50.828;4.700;2022-10-28T11:47:00;11.73;;;3.97;;
17151;SDS011;8691;50.828;4.700;2022-10-28T11:49:33;10.02;;;3.95;;
17151;SDS011;8691;50.828;4.700;2022-10-28T12:00:21;11.27;;;4.00;;
17151;SDS011;8691;50.828;4.700;2022-10-28T12:02:49;9.40;;;3.47;;
17151;SDS011;8691;50.828;4.700;2022-10-28T12:05:18;11.80;;;3.53;;
17151;SDS011;8691;50.828;4.700;2022-10-28T12:07:47;11.52;;;3.60;;
17151;SDS011;8691;50.828;4.700;2022-10-28T12:10:41;12.00;;;3.78;;
17151;SDS011;8691;50.828;4.700;2022-10-28T12:21:16;9.95;;;3.45;;
17151;SDS011;8691;50.828;4.700;2022-10-28T12:23:52;12.15;;;3.70;;
17151;SDS011;8691;50.828;4.700;2022-10-28T12:26:19;9.57;;;3.60;;
17151;SDS011;8691;50.828;4.700;2022-10-28T12:28:50;8.70;;;3.23;;
17151;SDS011;8691;50.828;4.700;2022-10-28T12:31:27;11.60;;;3.70;;
17151;SDS011;8691;50.828;4.700;2022-10-28T12:33:54;10.27;;;3.58;;
17151;SDS011;8691;50.828;4.700;2022-10-28T12:36:31;11.00;;;3.67;;
17151;SDS011;8691;50.828;4.700;2022-10-28T12:39:09;11.63;;;3.17;;
17151;SDS011;8691;50.828;4.700;2022-10-28T12:41:41;9.95;;;3.60;;
17151;SDS011;8691;50.828;4.700;2022-10-28T12:46:46;9.15;;;3.47;;
17151;SDS011;8691;50.828;4.700;2022-10-28T12:49:21;13.07;;;3.63;;
17151;SDS011;8691;50.828;4.700;2022-10-28T12:51:56;9.37;;;3.33;;
17151;SDS011;8691;50.828;4.700;2022-10-28T12:54:35;6.87;;;3.00;;
17151;SDS011;8691;50.828;4.700;2022-10-28T12:57:21;12.17;;;3.57;;
17151;SDS011;8691;50.828;4.700;2022-10-28T12:59:41;9.87;;;3.30;;
17151;SDS011;8691;50.828;4.700;2022-10-28T13:02:18;8.80;;;3.43;;
17151;SDS011;8691;50.828;4.700;2022-10-28T13:04:39;6.87;;;3.00;;
17151;SDS011;8691;50.828;4.700;2022-10-28T13:07:13;10.60;;;3.40;;
17151;SDS011;8691;50.828;4.700;2022-10-28T13:15:12;10.83;;;3.43;;
17151;SDS011;8691;50.828;4.700;2022-10-28T13:20:23;7.70;;;3.20;;
17151;SDS011;8691;50.828;4.700;2022-10-28T13:23:08;9.70;;;2.90;;
17151;SDS011;8691;50.828;4.700;2022-10-28T13:25:51;7.60;;;3.00;;
17151;SDS011;8691;50.828;4.700;2022-10-28T13:28:31;9.23;;;3.53;;
17151;SDS011;8691;50.828;4.700;2022-10-28T13:31:03;10.50;;;3.20;;
17151;SDS011;8691;50.828;4.700;2022-10-28T13:33:30;8.55;;;3.12;;
17151;SDS011;8691;50.828;4.700;2022-10-28T13:36:14;9.53;;;3.20;;
17151;SDS011;8691;50.828;4.700;2022-10-28T13:38:49;10.17;;;3.37;;
17151;SDS011;8691;50.828;4.700;2022-10-28T13:49:32;9.63;;;3.50;;
17151;SDS011;8691;50.828;4.700;2022-10-28T13:52:01;10.52;;;3.50;;
17151;SDS011;8691;50.828;4.700;2022-10-28T13:54:30;7.63;;;3.30;;
17151;SDS011;8691;50.828;4.700;2022-10-28T13:57:00;8.82;;;3.30;;
17151;SDS011;8691;50.828;4.700;2022-10-28T13:59:25;10.73;;;3.50;;
17151;SDS011;8691;50.828;4.700;2022-10-28T14:01:54;10.70;;;3.40;;
17151;SDS011;8691;50.828;4.700;2022-10-28T14:04:32;13.80;;;3.23;;
17151;SDS011;8691;50.828;4.700;2022-10-28T14:07:17;9.05;;;3.45;;
17151;SDS011;8691;50.828;4.700;2022-10-28T14:09:30;7.90;;;3.03;;
17151;SDS011;8691;50.828;4.700;2022-10-28T14:12:04;11.25;;;3.85;;
17151;SDS011;8691;50.828;4.700;2022-10-28T14:14:31;8.68;;;3.22;;
17151;SDS011;8691;50.828;4.700;2022-10-28T14:16:59;11.60;;;3.60;;
17151;SDS011;8691;50.828;4.700;2022-10-28T14:19:25;10.13;;;3.10;;
17151;SDS011;8691;50.828;4.700;2022-10-28T14:24:34;11.37;;;3.90;;
17151;SDS011;8691;50.828;4.700;2022-10-28T14:29:43;8.55;;;3.42;;
17151;SDS011;8691;50.828;4.700;2022-10-28T14:35:22;10.03;;;3.17;;
17151;SDS011;8691;50.828;4.700;2022-10-28T14:40:00;8.98;;;3.60;;
17151;SDS011;8691;50.828;4.700;2022-10-28T14:42:29;11.03;;;3.70;;
17151;SDS011;8691;50.828;4.700;2022-10-28T14:47:51;9.18;;;3.80;;
17151;SDS011;8691;50.828;4.700;2022-10-28T14:50:25;10.10;;;3.57;;
17151;SDS011;8691;50.828;4.700;2022-10-28T14:52:48;12.57;;;3.50;;
17151;SDS011;8691;50.828;4.700;2022-10-28T14:55:19;11.07;;;3.75;;
17151;SDS011;8691;50.828;4.700;2022-10-28T14:57:45;13.70;;;4.20;;
17151;SDS011;8691;50.828;4.700;2022-10-28T15:00:19;11.52;;;4.35;;
17151;SDS011;8691;50.828;4.700;2022-10-28T15:02:45;12.68;;;3.92;;
17151;SDS011;8691;50.828;4.700;2022-10-28T15:07:45;10.93;;;3.70;;
17151;SDS011;8691;50.828;4.700;2022-10-28T15:10:20;12.20;;;4.03;;
17151;SDS011;8691;50.828;4.700;2022-10-28T15:12:44;11.62;;;3.80;;
17151;SDS011;8691;50.828;4.700;2022-10-28T15:15:15;10.13;;;4.03;;
17151;SDS011;8691;50.828;4.700;2022-10-28T15:17:41;11.88;;;4.03;;
17151;SDS011;8691;50.828;4.700;2022-10-28T15:20:17;11.15;;;3.75;;
17151;SDS011;8691;50.828;4.700;2022-10-28T15:22:50;12.33;;;3.70;;
17151;SDS011;8691;50.828;4.700;2022-10-28T15:25:17;8.87;;;3.60;;
17151;SDS011;8691;50.828;4.700;2022-10-28T15:27:44;11.80;;;3.90;;
17151;SDS011;8691;50.828;4.700;2022-10-28T15:30:17;13.07;;;4.17;;
17151;SDS011;8691;50.828;4.700;2022-10-28T15:32:43;13.10;;;4.20;;
17151;SDS011;8691;50.828;4.700;2022-10-28T15:37:56;13.23;;;4.10;;
17151;SDS011;8691;50.828;4.700;2022-10-28T15:40:25;10.80;;;3.83;;
17151;SDS011;8691;50.828;4.700;2022-10-28T15:42:57;11.27;;;4.27;;
17151;SDS011;8691;50.828;4.700;2022-10-28T15:45:25;13.27;;;4.27;;
17151;SDS011;8691;50.828;4.700;2022-10-28T15:47:51;14.15;;;4.15;;
17151;SDS011;8691;50.828;4.700;2022-10-28T15:52:54;12.30;;;4.38;;
17151;SDS011;8691;50.828;4.700;2022-10-28T15:57:47;10.77;;;4.07;;
17151;SDS011;8691;50.828;4.700;2022-10-28T16:00:24;10.52;;;4.20;;
17151;SDS011;8691;50.828;4.700;2022-10-28T16:02:53;11.47;;;4.03;;
17151;SDS011;8691;50.828;4.700;2022-10-28T16:08:14;10.97;;;4.30;;
17151;SDS011;8691;50.828;4.700;2022-10-28T16:10:37;11.90;;;4.17;;
17151;SDS011;8691;50.828;4.700;2022-10-28T16:13:02;9.73;;;3.70;;
17151;SDS011;8691;50.828;4.700;2022-10-28T16:15:29;9.67;;;4.50;;
17151;SDS011;8691;50.828;4.700;2022-10-28T16:17:55;12.50;;;3.97;;
17151;SDS011;8691;50.828;4.700;2022-10-28T16:20:25;9.50;;;3.95;;
17151;SDS011;8691;50.828;4.700;2022-10-28T16:22:49;13.20;;;5.90;;
17151;SDS011;8691;50.828;4.700;2022-10-28T16:25:19;11.73;;;4.33;;
17151;SDS011;8691;50.828;4.700;2022-10-28T16:27:43;7.53;;;4.10;;
17151;SDS011;8691;50.828;4.700;2022-10-28T16:30:11;11.50;;;4.70;;
17151;SDS011;8691;50.828;4.700;2022-10-28T16:32:44;15.23;;;5.75;;
17151;SDS011;8691;50.828;4.700;2022-10-28T16:35:13;10.93;;;5.20;;
17151;SDS011;8691;50.828;4.700;2022-10-28T16:37:46;11.95;;;5.20;;
17151;SDS011;8691;50.828;4.700;2022-10-28T16:40:12;13.77;;;9.43;;
17151;SDS011;8691;50.828;4.700;2022-10-28T16:42:39;15.62;;;7.93;;
17151;SDS011;8691;50.828;4.700;2022-10-28T16:45:11;12.73;;;5.75;;
17151;SDS011;8691;50.828;4.700;2022-10-28T16:47:38;10.13;;;5.10;;
17151;SDS011;8691;50.828;4.700;2022-10-28T16:50:05;6.80;;;4.30;;
17151;SDS011;8691;50.828;4.700;2022-10-28T16:52:32;11.10;;;4.40;;
17151;SDS011;8691;50.828;4.700;2022-10-28T16:54:59;11.12;;;4.88;;
17151;SDS011;8691;50.828;4.700;2022-10-28T16:57:26;10.70;;;4.53;;
17151;SDS011;8691;50.828;4.700;2022-10-28T16:59:53;11.13;;;4.57;;
17151;SDS011;8691;50.828;4.700;2022-10-28T17:02:26;9.50;;;4.68;;
17151;SDS011;8691;50.828;4.700;2022-10-28T17:04:53;11.90;;;4.67;;
17151;SDS011;8691;50.828;4.700;2022-10-28T17:07:20;9.25;;;4.43;;
17151;SDS011;8691;50.828;4.700;2022-10-28T17:09:47;9.80;;;4.10;;
17151;SDS011;8691;50.828;4.700;2022-10-28T17:12:14;10.30;;;4.57;;